War Ar Mor — FGF5962 — position and weather

sailwx.info

Track history (hours):
 
Tides and Currents Weather Stations Pressure Air Temp Water Temp Dewpoint Dewpoint Depression Visibility Wind Speed Wind Dir Waves Ship Positions

War Ar Mor

Last reported at 2017-Sep-07 08:13 UTC. Time now 2017-Sep-22 04:22 UTC.
Position N 48°43' W 002°24'.
Warning: this ship's position is 14 days out of date.

Length 11 m.

Type: Sailing vessel. MMSI: 227735710.

Date/timePositionNaut miles runAvg speedWind from/ knotsBaromVisibWave heightAir tempDewpointWater temp
2017-Sep-07 08:13N 48°43' W 002°24'2 4.9
2017-Sep-07 07:49N 48°44' W 002°21'1 2.5
2017-Sep-07 07:16N 48°44' W 002°19'5 5.4
2017-Sep-07 06:21N 48°39' W 002°15'2 0.1
2017-Sep-06 08:33N 48°41' W 002°13'0 6.8
2017-Sep-06 08:30N 48°40' W 002°13'2 0.1
2017-Sep-04 14:24N 48°38' W 002°14'1 2.7
2017-Sep-04 14:00N 48°38' W 002°13'2 2.6
2017-Sep-04 13:10N 48°38' W 002°09'1 2.4
2017-Sep-04 12:42N 48°37' W 002°11'0 0.2
2017-Sep-04 10:07N 48°38' W 002°11'1 3.1
2017-Sep-04 09:40N 48°38' W 002°13'3 2.6
2017-Sep-04 08:37N 48°40' W 002°16'1 2.9
2017-Sep-04 08:10N 48°39' W 002°15'1 3.2
2017-Sep-04 07:55N 48°38' W 002°14'  
2017-Aug-29 09:00N 48°39' W 002°49'0 0.0
2017-Aug-29 08:27N 48°39' W 002°49'0 0.0
2017-Aug-29 07:57N 48°39' W 002°49'  
Track history (hours):
 
Tides and Currents Weather Stations Pressure Air Temp Water Temp Dewpoint Dewpoint Depression Visibility Wind Speed Wind Dir Waves Ship Positions

War Ar Mor

Last reported at 2017-Sep-07 08:13 UTC. Time now 2017-Sep-22 04:22 UTC.
Position N 48°43' W 002°24'.
Warning: this ship's position is 14 days out of date.

Length 11 m.

Type: Sailing vessel. MMSI: 227735710.

Date/timePositionNaut miles runAvg speedWind from/ knotsBaromVisibWave heightAir tempDewpointWater temp
2017-Sep-07 08:13N 48°43' W 002°24'2 4.9
2017-Sep-07 07:49N 48°44' W 002°21'1 2.5
2017-Sep-07 07:16N 48°44' W 002°19'5 5.4
2017-Sep-07 06:21N 48°39' W 002°15'2 0.1
2017-Sep-06 08:33N 48°41' W 002°13'0 6.8
2017-Sep-06 08:30N 48°40' W 002°13'2 0.1
2017-Sep-04 14:24N 48°38' W 002°14'1 2.7
2017-Sep-04 14:00N 48°38' W 002°13'2 2.6
2017-Sep-04 13:10N 48°38' W 002°09'1 2.4
2017-Sep-04 12:42N 48°37' W 002°11'0 0.2
2017-Sep-04 10:07N 48°38' W 002°11'1 3.1
2017-Sep-04 09:40N 48°38' W 002°13'3 2.6
2017-Sep-04 08:37N 48°40' W 002°16'1 2.9
2017-Sep-04 08:10N 48°39' W 002°15'1 3.2
2017-Sep-04 07:55N 48°38' W 002°14'  
2017-Aug-29 09:00N 48°39' W 002°49'0 0.0
2017-Aug-29 08:27N 48°39' W 002°49'0 0.0
2017-Aug-29 07:57N 48°39' W 002°49'  

Dump ship's entire track history